Terminal Aerodrome Forecast
Issued by NWS

Home | Current Version | Previous Version | Graphics & Text | Print | Product List | Glossary On
Versions: 1 2 3 4 5 6 7 8 9 10 11 12 13 14
000
FTUS43 KOAX 192300
TAFCDR
TAF
KCDR 192328Z 2000/2024 VRB05KT P6SM VCTS SCT100CB
     FM200300 17010KT P6SM BKN100
     FM201000 VRB05KT P6SM VCSH BKN100=

USA.gov is the U.S. government's official web portal to all federal, state and local government web resources and services.